Flight Number: EUR1538 Duration: 1:30
Departure: Liverpool Airport (EGGP) at 18:15 Distance: 272 Nm
Arrival: Barra Airport (EGPR) at 19:45 Equipment: B1900D

Weather Information
Liverpool Airport , United Kingdom (EGGP) 53-20N 002-51W Nov 19, 2017 - 10:50 PM EST / 2017.11.20 0350 UTC
Wind: from the S (180 degrees) at 10 MPH (9 KT):0
Visibility: greater than 7 mile(s):0
Sky conditions: mostly cloudy Temperature: 50 F (10 C) Dew Point: 48 F (9 C) Relative Humidity: 93% Pressure (altimeter): 29.88 in. Hg (1012 hPa)
ob: EGGP 200350Z AUTO 18009KT 9999 FEW004/// SCT010/// BKN015/// 10/09 Q1012 RERA cycle: 4
Sunrise: 07:51 Sunset: 16:02 (UTC)

404 Not Found

Not Found

The requested URL /data/observations/metar/decoded/EGPR.TXT was not found on this server.


Sunrise: 08:28 Sunset: 16:02 (UTC)

TAF: 404 Not Found

Not Found

The requested URL /data/forecasts/taf/stations/EGPR.TXT was not found on this server.



Previous Pireps for this route
Date Aircraft Flight time Fuel used Landing rate On time
2016-02-26B1900D01.241314-588No
(pireps marked green are flown by you)

Route map